Time;durP1;ratioP1;P1;durP2;ratioP2;P2;SDS_P1;SDS_P2;PMS_P1;PMS_P2;Temp;Humidity;BMP_temperature;BMP_pressure;BME280_temperature;BME280_humidity;BME280_pressure;Samples;Min_cycle;Max_cycle;Signal;HPM_P1;HPM_P2
2021/10/24 00:01:23;;;;;;;12.90;6.57;;;5.60;99.90;;;;;;5073960;28;20193;-68
2021/10/24 00:03:50;;;;;;;9.37;6.40;;;5.60;99.90;;;;;;5065450;28;20232;-68
2021/10/24 00:06:17;;;;;;;10.13;6.23;;;5.60;99.90;;;;;;5073485;28;20205;-68
2021/10/24 00:08:43;;;;;;;9.33;5.90;;;5.60;99.90;;;;;;5077110;28;20302;-68
2021/10/24 00:11:10;;;;;;;9.57;6.37;;;5.60;99.90;;;;;;5082671;28;20296;-67
2021/10/24 00:13:37;;;;;;;9.10;6.17;;;5.60;99.90;;;;;;5093889;28;20244;-67
2021/10/24 00:16:04;;;;;;;12.20;6.73;;;5.60;99.90;;;;;;5085981;28;20197;-67
2021/10/24 00:18:33;;;;;;;10.03;6.93;;;5.60;99.90;;;;;;5073783;28;20642;-66
2021/10/24 00:21:00;;;;;;;12.33;7.13;;;5.50;99.90;;;;;;5085844;28;20296;-67
2021/10/24 00:23:27;;;;;;;11.30;6.83;;;5.50;99.90;;;;;;5073617;28;20209;-67
2021/10/24 00:25:54;;;;;;;8.80;6.23;;;5.50;99.90;;;;;;5092632;28;20215;-68
2021/10/24 00:28:21;;;;;;;11.37;7.27;;;5.50;99.90;;;;;;5090192;28;20241;-67
2021/10/24 00:30:48;;;;;;;11.20;7.23;;;5.50;99.90;;;;;;5088433;28;20542;-67
2021/10/24 00:33:15;;;;;;;12.03;7.50;;;5.50;99.90;;;;;;5073093;28;20629;-67
2021/10/24 00:35:43;;;;;;;10.37;6.90;;;5.50;99.90;;;;;;5073054;28;20225;-68
2021/10/24 00:38:10;;;;;;;13.20;7.53;;;5.50;99.90;;;;;;5074562;28;20209;-67
2021/10/24 00:40:37;;;;;;;11.17;7.07;;;5.50;99.90;;;;;;5087349;28;20209;-67
2021/10/24 00:43:04;;;;;;;11.93;7.20;;;5.50;99.90;;;;;;5072855;28;20389;-66
2021/10/24 00:45:31;;;;;;;10.77;6.73;;;5.50;99.90;;;;;;5073249;28;20197;-67
2021/10/24 00:47:57;;;;;;;12.80;8.13;;;5.40;99.90;;;;;;5074803;28;20296;-67
2021/10/24 00:50:25;;;;;;;27.93;15.87;;;5.40;99.90;;;;;;5077207;28;20284;-67
2021/10/24 00:52:54;;;;;;;21.90;14.80;;;5.50;99.90;;;;;;5092868;28;20215;-67
2021/10/24 00:55:24;;;;;;;11.20;7.63;;;5.40;99.90;;;;;;5091317;28;20706;-68
2021/10/24 00:57:52;;;;;;;11.60;7.80;;;5.50;99.90;;;;;;5091806;28;20609;-67
2021/10/24 01:00:19;;;;;;;10.20;7.27;;;5.50;99.90;;;;;;5091751;28;20720;-68
2021/10/24 01:02:47;;;;;;;11.77;7.60;;;5.40;99.90;;;;;;5072324;28;20655;-67
2021/10/24 01:05:15;;;;;;;10.53;7.07;;;5.50;99.90;;;;;;5072447;28;20301;-67
2021/10/24 01:07:44;;;;;;;10.83;7.17;;;5.40;99.90;;;;;;5072537;28;20209;-66
2021/10/24 01:10:15;;;;;;;13.27;7.00;;;5.50;99.90;;;;;;5076546;28;20312;-67
2021/10/24 01:12:44;;;;;;;11.00;7.37;;;5.50;99.90;;;;;;5092556;28;20201;-68
2021/10/24 01:15:11;;;;;;;11.87;6.83;;;5.40;99.90;;;;;;5092656;28;20220;-69
2021/10/24 01:17:38;;;;;;;11.90;7.03;;;5.40;99.90;;;;;;5088375;28;20694;-67
2021/10/24 01:20:06;;;;;;;11.23;6.93;;;5.40;99.90;;;;;;5091612;28;20295;-67
2021/10/24 01:22:37;;;;;;;11.43;7.33;;;5.40;99.90;;;;;;5073859;28;20228;-66
2021/10/24 01:25:06;;;;;;;14.77;9.73;;;5.40;99.90;;;;;;5072741;28;20549;-67
2021/10/24 01:27:35;;;;;;;13.87;8.40;;;5.40;99.90;;;;;;5072037;28;20213;-67
2021/10/24 01:30:02;;;;;;;12.53;7.00;;;5.50;99.90;;;;;;5090663;28;20627;-67
2021/10/24 01:32:29;;;;;;;11.90;6.23;;;5.50;99.90;;;;;;5082183;28;20200;-67
2021/10/24 01:34:58;;;;;;;9.20;6.73;;;5.50;99.90;;;;;;5091113;28;20664;-66
2021/10/24 01:37:32;;;;;;;12.13;7.00;;;5.50;99.90;;;;;;5090286;28;20209;-67
2021/10/24 01:40:02;;;;;;;11.83;7.20;;;5.50;99.90;;;;;;5087935;28;20221;-67
2021/10/24 01:42:29;;;;;;;12.43;7.13;;;5.50;99.90;;;;;;5083347;28;20212;-67
2021/10/24 01:44:56;;;;;;;12.60;7.57;;;5.60;99.90;;;;;;5086137;28;20197;-66
2021/10/24 01:47:23;;;;;;;11.77;7.20;;;5.60;99.90;;;;;;5090045;28;20323;-67
2021/10/24 01:49:50;;;;;;;13.33;7.57;;;5.60;99.90;;;;;;5089085;28;20208;-66
2021/10/24 01:52:17;;;;;;;9.67;6.37;;;5.60;99.90;;;;;;5086359;28;20212;-66
2021/10/24 01:54:45;;;;;;;11.10;7.07;;;5.60;99.90;;;;;;5091113;28;20224;-66
2021/10/24 01:57:13;;;;;;;14.23;7.50;;;5.50;99.90;;;;;;5089886;28;20254;-67
2021/10/24 01:59:40;;;;;;;15.77;7.77;;;5.50;99.90;;;;;;5091342;28;20236;-67
2021/10/24 02:02:07;;;;;;;9.93;7.20;;;5.50;99.90;;;;;;5083625;28;20216;-67
2021/10/24 02:04:33;;;;;;;12.57;8.47;;;5.50;99.90;;;;;;5071354;28;20198;-68
2021/10/24 02:07:00;;;;;;;11.50;8.40;;;5.40;99.90;;;;;;5087202;28;20203;-67
2021/10/24 02:09:28;;;;;;;11.77;7.50;;;5.50;99.90;;;;;;5090958;28;20209;-66
2021/10/24 02:11:55;;;;;;;12.57;7.83;;;5.40;99.90;;;;;;5091454;28;20239;-67
2021/10/24 02:14:23;;;;;;;10.70;7.80;;;5.40;99.90;;;;;;5081884;28;20231;-66
2021/10/24 02:16:50;;;;;;;12.57;7.93;;;5.40;99.90;;;;;;5079548;28;20212;-66
2021/10/24 02:19:17;;;;;;;14.03;7.70;;;5.40;99.90;;;;;;5090996;28;20205;-67
2021/10/24 02:21:44;;;;;;;14.13;8.17;;;5.40;99.90;;;;;;5091464;28;20208;-67
2021/10/24 02:24:10;;;;;;;14.00;8.43;;;5.30;99.90;;;;;;5084096;28;20608;-67
2021/10/24 02:26:37;;;;;;;13.33;8.47;;;5.20;99.90;;;;;;5071126;28;20209;-67
2021/10/24 02:29:04;;;;;;;15.57;8.83;;;5.30;99.90;;;;;;5087204;28;20196;-66
2021/10/24 02:31:33;;;;;;;13.83;8.70;;;5.20;99.90;;;;;;5093021;28;20200;-67
2021/10/24 02:34:00;;;;;;;12.13;8.07;;;5.20;99.90;;;;;;5089571;28;20288;-67
2021/10/24 02:36:26;;;;;;;13.10;8.03;;;5.20;99.90;;;;;;5074941;28;20231;-67
2021/10/24 02:38:53;;;;;;;16.10;8.53;;;5.20;99.90;;;;;;5076852;28;20231;-66
2021/10/24 02:41:20;;;;;;;13.97;9.60;;;5.20;99.90;;;;;;5075368;28;20288;-66
2021/10/24 02:43:47;;;;;;;12.57;8.33;;;5.20;99.90;;;;;;5077608;28;20200;-67
2021/10/24 02:46:15;;;;;;;19.43;8.30;;;5.20;99.90;;;;;;5094174;28;20709;-67
2021/10/24 02:48:43;;;;;;;14.13;8.83;;;5.20;99.90;;;;;;5081086;28;20291;-67
2021/10/24 02:51:10;;;;;;;16.07;8.37;;;5.10;99.90;;;;;;5082264;28;20204;-66
2021/10/24 02:53:37;;;;;;;15.50;7.70;;;5.10;99.90;;;;;;5093094;28;20501;-67
2021/10/24 02:56:04;;;;;;;15.60;8.77;;;5.10;99.90;;;;;;5095212;28;20602;-67
2021/10/24 02:58:30;;;;;;;18.50;8.87;;;5.10;99.90;;;;;;5089763;28;20192;-67
2021/10/24 03:00:57;;;;;;;17.93;9.43;;;5.10;99.90;;;;;;5092608;28;20213;-66
2021/10/24 03:03:24;;;;;;;19.40;8.90;;;5.10;99.90;;;;;;5094763;28;20210;-66
2021/10/24 03:05:52;;;;;;;19.13;9.67;;;5.10;99.90;;;;;;5095000;28;20196;-67
2021/10/24 03:08:19;;;;;;;14.70;8.40;;;5.10;99.90;;;;;;5084665;28;20594;-66
2021/10/24 03:10:46;;;;;;;16.37;8.43;;;5.20;99.90;;;;;;5094974;28;20196;-67
2021/10/24 03:13:15;;;;;;;15.80;8.93;;;5.20;99.90;;;;;;5094942;28;20211;-68
2021/10/24 03:15:42;;;;;;;17.70;9.73;;;5.30;99.90;;;;;;5092959;28;20572;-67
2021/10/24 03:18:08;;;;;;;18.00;9.47;;;5.30;99.90;;;;;;5086153;28;20255;-67
2021/10/24 03:20:35;;;;;;;14.53;8.43;;;5.30;99.90;;;;;;5090354;28;20232;-67
2021/10/24 03:23:04;;;;;;;17.97;10.63;;;5.30;99.90;;;;;;5094762;28;20208;-67
2021/10/24 03:25:30;;;;;;;18.57;10.00;;;5.20;99.90;;;;;;5087519;28;20193;-67
2021/10/24 03:27:57;;;;;;;16.30;9.33;;;5.20;99.90;;;;;;5081876;28;20200;-67
2021/10/24 03:30:24;;;;;;;18.63;9.90;;;5.30;99.90;;;;;;5081798;28;20219;-75
2021/10/24 03:32:51;;;;;;;17.57;10.00;;;5.30;99.90;;;;;;5074578;28;20236;-67
2021/10/24 03:35:18;;;;;;;17.87;10.37;;;5.30;99.90;;;;;;5073650;28;20341;-67
2021/10/24 03:37:45;;;;;;;18.37;10.20;;;5.30;99.90;;;;;;5079115;28;20295;-67
2021/10/24 03:40:14;;;;;;;21.37;11.83;;;5.30;99.90;;;;;;5077751;28;20217;-66
2021/10/24 03:42:41;;;;;;;23.23;11.57;;;5.30;99.90;;;;;;5073846;28;20201;-67
2021/10/24 03:45:09;;;;;;;21.23;10.73;;;5.30;99.90;;;;;;5090287;28;20219;-66
2021/10/24 03:47:36;;;;;;;20.53;11.20;;;5.30;99.90;;;;;;5093929;28;20207;-67
2021/10/24 03:50:04;;;;;;;23.73;11.40;;;5.40;99.90;;;;;;5090618;28;20197;-67
2021/10/24 03:52:31;;;;;;;26.63;12.43;;;5.40;99.90;;;;;;5090474;28;20214;-67
2021/10/24 03:54:58;;;;;;;22.97;12.50;;;5.40;99.90;;;;;;5094028;28;20228;-66
2021/10/24 03:57:26;;;;;;;27.10;13.13;;;5.40;99.90;;;;;;5092325;28;20588;-68
2021/10/24 03:59:53;;;;;;;20.00;11.27;;;5.40;99.90;;;;;;5086907;28;20251;-67
2021/10/24 04:02:21;;;;;;;24.23;12.00;;;5.40;99.90;;;;;;5093198;28;20398;-66
2021/10/24 04:04:48;;;;;;;24.57;13.03;;;5.40;99.90;;;;;;5093373;28;20299;-67
2021/10/24 04:07:15;;;;;;;23.20;12.57;;;5.40;99.90;;;;;;5092903;28;20201;-67
2021/10/24 04:09:42;;;;;;;23.60;12.87;;;5.40;99.90;;;;;;5094114;28;20208;-67
2021/10/24 04:12:09;;;;;;;21.33;12.77;;;5.40;99.90;;;;;;5093318;28;20207;-67
2021/10/24 04:14:37;;;;;;;25.67;14.17;;;5.40;99.90;;;;;;5090378;28;20597;-68
2021/10/24 04:17:04;;;;;;;23.90;13.57;;;5.40;99.90;;;;;;5092643;28;20898;-66
2021/10/24 04:19:31;;;;;;;22.17;12.37;;;5.40;99.90;;;;;;5074373;28;20210;-67
2021/10/24 04:21:58;;;;;;;25.47;13.63;;;5.40;99.90;;;;;;5074090;28;20205;-66
2021/10/24 04:24:25;;;;;;;20.80;13.17;;;5.40;99.90;;;;;;5072241;28;20201;-66
2021/10/24 04:26:51;;;;;;;25.80;14.43;;;5.40;99.90;;;;;;5073581;28;20201;-66
2021/10/24 04:29:19;;;;;;;25.57;12.93;;;5.40;99.90;;;;;;5073215;28;20209;-66
2021/10/24 04:31:48;;;;;;;28.47;14.20;;;5.40;99.90;;;;;;5074578;28;20205;-68
2021/10/24 04:34:14;;;;;;;21.67;12.17;;;5.40;99.90;;;;;;5073100;28;20205;-67
2021/10/24 04:36:41;;;;;;;23.70;13.50;;;5.50;99.90;;;;;;5073651;28;20693;-67
2021/10/24 04:39:08;;;;;;;24.23;13.43;;;5.40;99.90;;;;;;5074102;28;20669;-67
2021/10/24 04:41:35;;;;;;;24.23;13.43;;;5.50;99.90;;;;;;5073266;28;20201;-68
2021/10/24 04:44:02;;;;;;;24.57;13.50;;;5.40;99.90;;;;;;5072506;28;20662;-66
2021/10/24 04:46:29;;;;;;;20.47;12.83;;;5.40;99.90;;;;;;5088536;28;20647;-67
2021/10/24 04:48:57;;;;;;;27.00;12.77;;;5.40;99.90;;;;;;5079158;28;20572;-67
2021/10/24 04:51:24;;;;;;;23.30;13.70;;;5.40;99.90;;;;;;5079872;28;20208;-67
2021/10/24 04:53:51;;;;;;;20.20;12.40;;;5.40;99.90;;;;;;5092953;28;20200;-67
2021/10/24 04:56:18;;;;;;;24.07;13.33;;;5.30;99.90;;;;;;5092899;28;20294;-67
2021/10/24 04:58:45;;;;;;;24.37;13.40;;;5.30;99.90;;;;;;5086342;28;20211;-66
2021/10/24 05:01:11;;;;;;;26.93;14.20;;;5.30;99.90;;;;;;5086440;28;20378;-66
2021/10/24 05:03:38;;;;;;;24.37;13.53;;;5.30;99.90;;;;;;5091450;28;20209;-67
2021/10/24 05:06:07;;;;;;;23.17;13.23;;;5.30;99.90;;;;;;5091485;28;20258;-67
2021/10/24 05:08:34;;;;;;;34.77;14.83;;;5.30;99.90;;;;;;5092331;28;20211;-67
2021/10/24 05:11:01;;;;;;;25.87;13.80;;;5.40;99.90;;;;;;5091394;28;20199;-68
2021/10/24 05:13:27;;;;;;;28.83;13.93;;;5.30;99.90;;;;;;5091965;28;20223;-67
2021/10/24 05:15:54;;;;;;;28.03;14.33;;;5.30;99.90;;;;;;5092469;28;20228;-66
2021/10/24 05:18:21;;;;;;;26.07;13.93;;;5.30;99.90;;;;;;5079656;28;20563;-67
2021/10/24 05:20:48;;;;;;;29.33;14.00;;;5.30;99.90;;;;;;5086684;28;20301;-67
2021/10/24 05:23:17;;;;;;;25.30;14.67;;;5.30;99.90;;;;;;5091642;28;20215;-66
2021/10/24 05:25:43;;;;;;;31.03;14.20;;;5.40;99.90;;;;;;5093398;28;20200;-67
2021/10/24 05:28:10;;;;;;;25.13;13.67;;;5.40;99.90;;;;;;5080964;28;20208;-66
2021/10/24 05:30:37;;;;;;;29.03;14.00;;;5.40;99.90;;;;;;5073092;28;20243;-69
2021/10/24 05:33:04;;;;;;;24.13;13.60;;;5.40;99.90;;;;;;5072556;28;20554;-66
2021/10/24 05:35:31;;;;;;;25.00;13.10;;;5.30;99.90;;;;;;5072186;28;20221;-67
2021/10/24 05:37:58;;;;;;;28.53;14.07;;;5.30;99.90;;;;;;5075052;28;20213;-66
2021/10/24 05:40:26;;;;;;;28.97;15.17;;;5.30;99.90;;;;;;5072275;28;20201;-66
2021/10/24 05:42:53;;;;;;;31.00;13.40;;;5.30;99.90;;;;;;5071719;28;20206;-66
2021/10/24 05:45:21;;;;;;;22.67;13.87;;;5.30;99.90;;;;;;5072424;28;20704;-66
2021/10/24 05:47:48;;;;;;;24.60;12.67;;;5.30;99.90;;;;;;5084131;28;20211;-66
2021/10/24 05:50:15;;;;;;;25.10;12.93;;;5.30;99.90;;;;;;5085960;28;20209;-66
2021/10/24 05:52:42;;;;;;;20.83;11.70;;;5.40;99.90;;;;;;5087398;28;20201;-67
2021/10/24 05:55:09;;;;;;;18.63;11.70;;;5.40;99.90;;;;;;5091356;28;20200;-66
2021/10/24 05:57:37;;;;;;;20.13;12.37;;;5.40;99.90;;;;;;5088281;28;20596;-66
2021/10/24 06:00:05;;;;;;;20.67;12.40;;;5.40;99.90;;;;;;5090514;28;20232;-67
2021/10/24 06:02:32;;;;;;;26.83;12.87;;;5.30;99.90;;;;;;5092058;28;20200;-68
2021/10/24 06:04:59;;;;;;;24.30;13.80;;;5.40;99.90;;;;;;5092484;28;20242;-68
2021/10/24 06:07:27;;;;;;;21.17;12.90;;;5.40;99.90;;;;;;5082523;28;20196;-68
2021/10/24 06:09:55;;;;;;;26.10;12.23;;;5.20;99.90;;;;;;5073575;28;20749;-67
2021/10/24 06:12:40;;;;;;;29.33;12.87;;;5.30;99.90;;;;;;5071993;28;20356;-68
2021/10/24 06:15:11;;;;;;;22.47;12.93;;;5.30;99.90;;;;;;5087140;28;20208;-67
2021/10/24 06:17:38;;;;;;;19.20;12.30;;;5.30;99.90;;;;;;5090752;28;20236;-67
2021/10/24 06:20:07;;;;;;;24.70;12.30;;;5.30;99.90;;;;;;5091150;28;20732;-67
2021/10/24 06:22:34;;;;;;;21.30;12.27;;;5.20;99.90;;;;;;5091536;28;20204;-73
2021/10/24 06:25:02;;;;;;;24.00;12.40;;;5.30;99.90;;;;;;5087282;28;20201;-72
2021/10/24 06:27:29;;;;;;;19.60;11.80;;;5.30;99.90;;;;;;5083198;28;20232;-71
2021/10/24 06:29:56;;;;;;;24.10;13.27;;;5.40;99.90;;;;;;5088903;28;20320;-73
2021/10/24 06:32:24;;;;;;;33.27;14.30;;;5.50;99.90;;;;;;5085240;28;20691;-72
2021/10/24 06:34:51;;;;;;;21.27;12.13;;;5.40;99.90;;;;;;5071816;28;20207;-72
2021/10/24 06:37:19;;;;;;;23.87;12.73;;;5.40;99.90;;;;;;5084276;28;20308;-73
2021/10/24 06:39:47;;;;;;;20.53;11.70;;;5.40;99.90;;;;;;5091476;28;20835;-71
2021/10/24 06:42:14;;;;;;;19.43;11.27;;;5.40;99.90;;;;;;5075813;28;20205;-73
2021/10/24 06:44:41;;;;;;;21.07;12.50;;;5.40;99.90;;;;;;5076389;28;20209;-75
2021/10/24 06:47:08;;;;;;;20.20;12.33;;;5.50;99.90;;;;;;5083157;28;20292;-74
2021/10/24 06:49:36;;;;;;;23.83;11.95;;;5.40;99.90;;;;;;5086480;28;20496;-69
2021/10/24 06:52:05;;;;;;;19.67;11.03;;;5.40;99.90;;;;;;5082900;28;20239;-70
2021/10/24 06:54:33;;;;;;;21.40;11.87;;;5.40;99.90;;;;;;5076834;28;20209;-72
2021/10/24 06:57:00;;;;;;;23.87;12.10;;;5.40;99.90;;;;;;5075135;28;20739;-73
2021/10/24 06:59:27;;;;;;;22.30;12.43;;;5.40;99.90;;;;;;5078861;28;20251;-73
2021/10/24 07:01:54;;;;;;;21.70;12.60;;;5.40;99.90;;;;;;5073148;28;20205;-72
2021/10/24 07:04:21;;;;;;;21.47;12.73;;;5.40;99.90;;;;;;5081483;28;20204;-72
2021/10/24 07:06:49;;;;;;;24.42;14.75;;;5.40;99.90;;;;;;5080539;28;20480;-73
2021/10/24 07:09:16;;;;;;;20.97;12.47;;;5.40;99.90;;;;;;5092420;28;20292;-71
2021/10/24 07:11:42;;;;;;;19.87;12.07;;;5.50;99.90;;;;;;5081221;28;20284;-74
2021/10/24 07:14:09;;;;;;;19.67;11.93;;;5.50;99.90;;;;;;5087110;28;20213;-71
2021/10/24 07:16:36;;;;;;;21.67;13.30;;;5.50;99.90;;;;;;5096555;28;20319;-71
2021/10/24 07:19:03;;;;;;;17.40;10.47;;;5.60;99.90;;;;;;5095087;28;20291;-73
2021/10/24 07:21:30;;;;;;;19.13;11.40;;;5.60;99.90;;;;;;5076517;28;20211;-70
2021/10/24 07:23:58;;;;;;;19.10;11.77;;;5.60;99.90;;;;;;5086046;28;20303;-71
2021/10/24 07:26:25;;;;;;;19.83;10.93;;;5.60;99.90;;;;;;5096320;28;20654;-72
2021/10/24 07:28:52;;;;;;;16.37;10.80;;;5.60;99.90;;;;;;5095363;28;20209;-71
2021/10/24 07:31:19;;;;;;;19.43;11.00;;;5.50;99.90;;;;;;5095368;28;20661;-72
2021/10/24 07:33:45;;;;;;;16.40;11.17;;;5.50;99.90;;;;;;5093681;28;20208;-73
2021/10/24 07:36:12;;;;;;;19.50;11.20;;;5.60;99.90;;;;;;5095940;28;20220;-72
2021/10/24 07:38:39;;;;;;;15.97;10.27;;;5.60;99.90;;;;;;5091121;28;20646;-71
2021/10/24 07:41:08;;;;;;;19.13;10.83;;;5.70;99.90;;;;;;5090238;28;20204;-72
2021/10/24 07:43:35;;;;;;;17.97;11.53;;;5.70;99.90;;;;;;5096103;28;20219;-72
2021/10/24 07:46:02;;;;;;;18.40;11.20;;;5.80;99.90;;;;;;5088431;28;20653;-72
2021/10/24 07:48:29;;;;;;;17.37;10.80;;;5.90;99.90;;;;;;5091810;28;20545;-72
2021/10/24 07:50:56;;;;;;;16.60;10.27;;;6.00;99.90;;;;;;5077311;28;20205;-70
2021/10/24 07:53:25;;;;;;;17.87;10.57;;;6.00;99.90;;;;;;5087225;28;20273;-72
2021/10/24 07:55:52;;;;;;;18.63;11.13;;;6.10;99.90;;;;;;5089421;28;20582;-73
2021/10/24 07:58:21;;;;;;;18.30;12.00;;;6.10;99.90;;;;;;5077895;28;20209;-74
2021/10/24 08:00:49;;;;;;;20.30;11.33;;;6.10;99.90;;;;;;5084746;28;20251;-72
2021/10/24 08:03:18;;;;;;;19.37;11.63;;;6.10;99.90;;;;;;5095162;28;20264;-72
2021/10/24 08:05:44;;;;;;;19.33;11.23;;;6.30;99.90;;;;;;5087471;28;20204;-72
2021/10/24 08:08:11;;;;;;;22.03;13.30;;;6.20;99.90;;;;;;5085429;28;20210;-72
2021/10/24 08:10:38;;;;;;;21.43;12.90;;;6.30;99.90;;;;;;5089102;28;20665;-71
2021/10/24 08:13:05;;;;;;;20.80;12.20;;;6.30;99.90;;;;;;5073160;28;20324;-72
2021/10/24 08:15:34;;;;;;;17.63;10.20;;;6.40;99.90;;;;;;5083709;28;20292;-73
2021/10/24 08:18:01;;;;;;;14.50;10.03;;;6.40;99.90;;;;;;5093693;28;20299;-72
2021/10/24 08:20:28;;;;;;;13.20;8.60;;;6.40;99.90;;;;;;5084831;28;20303;-71
2021/10/24 08:22:55;;;;;;;13.53;8.30;;;6.50;99.90;;;;;;5080634;28;20280;-71
2021/10/24 08:25:23;;;;;;;11.53;7.73;;;6.50;99.90;;;;;;5080361;28;20405;-71
2021/10/24 08:27:50;;;;;;;17.70;9.17;;;6.60;99.90;;;;;;5073343;28;20205;-72
2021/10/24 08:30:17;;;;;;;16.13;9.83;;;6.70;99.90;;;;;;5096927;28;20201;-71
2021/10/24 08:32:45;;;;;;;13.33;8.77;;;6.70;99.90;;;;;;5079040;28;21172;-72
2021/10/24 08:35:13;;;;;;;16.40;8.93;;;6.70;99.90;;;;;;5083848;28;20208;-72
2021/10/24 08:37:40;;;;;;;15.30;9.33;;;6.80;99.90;;;;;;5078421;28;20235;-72
2021/10/24 08:40:09;;;;;;;15.47;9.40;;;6.70;99.90;;;;;;5093595;28;20211;-70
2021/10/24 08:42:39;;;;;;;16.00;9.57;;;6.70;99.90;;;;;;5085856;28;20231;-74
2021/10/24 08:45:07;;;;;;;14.17;10.10;;;6.80;99.90;;;;;;5086793;28;20205;-71
2021/10/24 08:47:34;;;;;;;14.50;9.53;;;7.10;99.90;;;;;;5082613;28;20197;-71
2021/10/24 08:50:04;;;;;;;15.37;10.23;;;7.50;99.90;;;;;;5079995;28;20209;-70
2021/10/24 08:52:38;;;;;;;16.37;11.10;;;7.60;99.90;;;;;;5086688;28;20297;-70
2021/10/24 08:55:06;;;;;;;18.43;11.57;;;7.80;99.90;;;;;;5085645;28;20243;-71
2021/10/24 08:57:33;;;;;;;22.70;13.33;;;7.80;99.90;;;;;;5093828;28;20278;-71
2021/10/24 09:00:04;;;;;;;19.87;14.00;;;7.80;99.90;;;;;;5093498;28;20322;-70
2021/10/24 09:02:53;;;;;;;22.67;13.80;;;7.80;99.90;;;;;;5092600;28;20192;-70
2021/10/24 09:05:36;;;;;;;21.97;12.97;;;7.80;99.90;;;;;;5093009;28;20811;-69
2021/10/24 09:08:03;;;;;;;18.77;11.87;;;7.70;99.90;;;;;;5092604;28;20211;-72
2021/10/24 09:10:42;;;;;;;18.87;11.63;;;7.70;99.90;;;;;;5087187;28;20277;-72
2021/10/24 09:13:10;;;;;;;15.87;11.43;;;7.70;99.90;;;;;;5093597;28;20316;-72
2021/10/24 09:15:50;;;;;;;14.50;10.47;;;7.90;99.90;;;;;;5093065;28;20263;-73
2021/10/24 09:18:19;;;;;;;16.30;11.23;;;8.00;99.90;;;;;;5093059;28;20220;-73
2021/10/24 09:20:48;;;;;;;16.30;11.20;;;8.20;99.90;;;;;;5093227;28;20236;-73
2021/10/24 09:23:16;;;;;;;17.10;12.00;;;8.40;99.90;;;;;;5082935;28;20201;-74
2021/10/24 09:25:56;;;;;;;17.03;11.73;;;8.50;99.90;;;;;;5090484;28;20288;-74
2021/10/24 09:28:24;;;;;;;25.03;16.77;;;9.40;99.90;;;;;;5090672;28;20444;-74
2021/10/24 09:31:02;;;;;;;24.40;14.77;;;10.20;99.90;;;;;;5092387;28;20451;-75
2021/10/24 09:33:44;;;;;;;21.10;15.37;;;10.40;99.90;;;;;;5090891;28;20201;-73
2021/10/24 09:36:13;;;;;;;20.70;13.10;;;11.40;99.90;;;;;;5089063;28;20200;-72
2021/10/24 09:38:42;;;;;;;22.40;16.17;;;12.40;99.90;;;;;;5085838;28;20944;-74
2021/10/24 09:41:09;;;;;;;19.63;14.90;;;13.00;99.90;;;;;;5087356;28;20234;-73
2021/10/24 09:43:37;;;;;;;19.77;14.10;;;13.10;99.90;;;;;;5090742;28;20559;-73
2021/10/24 09:46:12;;;;;;;21.07;12.73;;;13.00;99.90;;;;;;5089346;28;20215;-74
2021/10/24 09:48:44;;;;;;;25.10;14.60;;;12.80;99.90;;;;;;5089009;28;20245;-73
2021/10/24 09:51:16;;;;;;;19.87;13.10;;;12.50;99.90;;;;;;5086201;28;20218;-75
2021/10/24 09:53:44;;;;;;;19.50;13.47;;;12.40;99.90;;;;;;5086876;28;20204;-73
2021/10/24 09:56:13;;;;;;;20.07;12.80;;;12.60;99.90;;;;;;5084010;28;20240;-74
2021/10/24 09:58:42;;;;;;;16.73;11.57;;;14.50;99.90;;;;;;5084056;28;20224;-75
2021/10/24 10:01:15;;;;;;;18.47;13.03;;;17.60;99.90;;;;;;5092370;28;20325;-74
2021/10/24 10:03:42;;;;;;;19.00;12.50;;;20.60;85.80;;;;;;5082840;28;20298;-73
2021/10/24 10:06:12;;;;;;;16.33;11.80;;;22.00;74.30;;;;;;5081738;28;20628;-75
2021/10/24 10:08:43;;;;;;;17.60;12.07;;;23.90;66.50;;;;;;5089855;28;20208;-74
2021/10/24 10:11:17;;;;;;;15.55;11.63;;;26.00;55.90;;;;;;5092650;28;20189;-74
2021/10/24 10:13:48;;;;;;;16.40;12.10;;;27.70;50.20;;;;;;5090117;28;20209;-74
2021/10/24 10:16:18;;;;;;;16.88;12.70;;;29.00;45.70;;;;;;5088672;28;20201;-75
2021/10/24 10:19:02;;;;;;;15.48;13.00;;;29.50;43.80;;;;;;5088594;28;20225;-74
2021/10/24 10:21:32;;;;;;;19.33;14.35;;;29.60;42.80;;;;;;5090092;28;20189;-73
2021/10/24 10:24:01;;;;;;;15.93;13.85;;;28.60;39.90;;;;;;5090962;28;20227;-75
2021/10/24 10:26:35;;;;;;;17.38;14.05;;;27.20;41.80;;;;;;5088353;28;20207;-71
2021/10/24 10:29:04;;;;;;;14.25;11.90;;;25.90;45.10;;;;;;5086070;28;20291;-70
2021/10/24 10:31:32;;;;;;;14.98;12.73;;;26.40;45.70;;;;;;5091820;28;20616;-76
2021/10/24 10:34:01;;;;;;;16.83;13.40;;;26.80;43.70;;;;;;5092024;28;20292;-77
2021/10/24 10:36:59;;;;;;;18.80;16.00;;;27.50;44.10;;;;;;5089510;28;20201;-81
2021/10/24 10:39:40;;;;;;;17.35;13.60;;;29.40;41.40;;;;;;5096549;28;20204;-79
2021/10/24 10:42:43;;;;;;;14.82;12.85;;;31.00;39.20;;;;;;5070851;28;20283;-78
2021/10/24 10:45:45;;;;;;;15.45;13.30;;;32.40;37.00;;;;;;5085624;28;20236;-75
2021/10/24 10:48:27;;;;;;;15.68;13.25;;;33.50;35.10;;;;;;5034929;28;20196;-76
2021/10/24 10:50:55;;;;;;;14.80;12.43;;;33.50;34.00;;;;;;5089016;28;20751;-75
2021/10/24 10:53:51;;;;;;;17.25;14.32;;;33.60;33.90;;;;;;5094299;28;20211;-75
2021/10/24 10:56:21;;;;;;;15.88;14.25;;;33.80;33.20;;;;;;5086392;28;20228;-74
2021/10/24 10:58:50;;;;;;;14.73;11.98;;;33.60;33.30;;;;;;5074561;28;20219;-75
2021/10/24 11:01:24;;;;;;;12.57;10.55;;;34.00;33.10;;;;;;5078621;28;20197;-76
2021/10/24 11:03:53;;;;;;;16.17;12.88;;;34.60;31.50;;;;;;5107089;28;20208;-76
2021/10/24 11:07:02;;;;;;;15.07;12.43;;;35.00;31.40;;;;;;5098973;28;20573;-75
2021/10/24 11:09:48;;;;;;;14.38;12.88;;;35.40;30.30;;;;;;5094400;28;20220;-76
2021/10/24 11:12:36;;;;;;;15.70;13.90;;;35.10;29.90;;;;;;5095816;28;20287;-76
2021/10/24 11:15:12;;;;;;;19.23;14.65;;;34.10;30.70;;;;;;5094769;28;20212;-77
2021/10/24 11:17:39;;;;;;;15.77;13.93;;;33.90;31.30;;;;;;5094640;28;20568;-77
2021/10/24 11:20:35;;;;;;;15.27;13.68;;;34.30;31.10;;;;;;5095279;28;20296;-76
2021/10/24 11:23:04;;;;;;;16.10;14.10;;;34.70;30.40;;;;;;5094013;28;20209;-75
2021/10/24 11:25:38;;;;;;;16.92;14.93;;;35.20;30.40;;;;;;5093940;28;20208;-75
2021/10/24 11:28:08;;;;;;;17.58;15.45;;;35.70;29.80;;;;;;5092263;28;20708;-76
2021/10/24 11:30:37;;;;;;;16.27;13.98;;;35.70;29.70;;;;;;5085856;28;20682;-76
2021/10/24 11:33:04;;;;;;;15.90;14.20;;;35.50;29.30;;;;;;5075436;28;20267;-76
2021/10/24 11:35:31;;;;;;;14.95;13.15;;;35.50;29.70;;;;;;5074931;28;20216;-75
2021/10/24 11:38:00;;;;;;;14.27;12.52;;;35.70;29.40;;;;;;5077534;28;20308;-75
2021/10/24 11:40:28;;;;;;;14.90;13.15;;;36.40;29.30;;;;;;5094773;28;20292;-75
2021/10/24 11:43:03;;;;;;;16.65;13.15;;;37.00;28.60;;;;;;5094311;28;20309;-75
2021/10/24 11:45:34;;;;;;;14.27;12.10;;;37.00;28.00;;;;;;5094166;28;20296;-75
2021/10/24 11:48:05;;;;;;;14.18;12.20;;;36.80;28.00;;;;;;5094326;28;20193;-76
2021/10/24 11:50:50;;;;;;;15.00;12.57;;;36.10;27.70;;;;;;5089083;28;20199;-75
2021/10/24 11:53:19;;;;;;;15.40;12.20;;;35.30;28.70;;;;;;5092346;28;20260;-73
2021/10/24 11:55:50;;;;;;;14.85;12.38;;;34.70;29.00;;;;;;5080975;28;20201;-75
2021/10/24 11:58:38;;;;;;;15.30;12.30;;;34.30;29.10;;;;;;5093080;28;20283;-74
2021/10/24 12:01:10;;;;;;;15.25;12.82;;;33.80;29.60;;;;;;5084778;28;20200;-75
2021/10/24 12:03:40;;;;;;;14.95;12.25;;;33.10;29.90;;;;;;5092524;28;20303;-75
2021/10/24 12:06:07;;;;;;;13.55;12.05;;;32.20;29.70;;;;;;5093484;28;20204;-78
2021/10/24 12:08:43;;;;;;;14.52;12.40;;;30.70;30.30;;;;;;5091298;28;20207;-75
2021/10/24 12:11:13;;;;;;;13.32;11.45;;;28.90;32.50;;;;;;5090314;28;20197;-75
2021/10/24 12:13:42;;;;;;;15.18;11.70;;;27.20;34.40;;;;;;5093922;28;20200;-76
2021/10/24 12:16:30;;;;;;;14.18;12.55;;;25.60;36.30;;;;;;5072378;28;20657;-75
2021/10/24 12:19:28;;;;;;;15.10;12.07;;;24.10;38.30;;;;;;5092248;28;20286;-74
2021/10/24 12:22:05;;;;;;;14.38;11.18;;;22.70;40.20;;;;;;5091136;28;20216;-73
2021/10/24 12:24:42;;;;;;;13.43;11.48;;;21.40;41.70;;;;;;5091968;28;20204;-74
2021/10/24 12:27:17;;;;;;;15.68;11.98;;;20.20;43.40;;;;;;5073902;28;20205;-74
2021/10/24 12:29:58;;;;;;;17.30;11.77;;;19.30;44.70;;;;;;5074546;28;20326;-75
2021/10/24 12:32:25;;;;;;;17.92;11.07;;;18.60;46.50;;;;;;5094096;28;20188;-74
2021/10/24 12:35:12;;;;;;;14.85;12.05;;;18.70;48.30;;;;;;5092355;28;20208;-74
2021/10/24 12:37:40;;;;;;;16.20;11.68;;;19.90;47.30;;;;;;5086903;28;20220;-76
2021/10/24 12:40:27;;;;;;;12.88;11.00;;;21.20;45.90;;;;;;5073856;28;20209;-75
2021/10/24 12:43:12;;;;;;;16.02;11.98;;;22.50;43.80;;;;;;5082111;28;20204;-74
2021/10/24 12:45:45;;;;;;;18.23;12.57;;;22.70;42.10;;;;;;5087188;28;20219;-74
2021/10/24 12:48:13;;;;;;;13.63;10.93;;;22.00;42.60;;;;;;5094065;28;20573;-75
2021/10/24 12:50:41;;;;;;;14.57;11.95;;;20.80;43.80;;;;;;5087672;28;20652;-75